sensor_id;sensor_type;location;lat;lon;timestamp;pressure;altitude;pressure_sealevel;temperature;humidity
12757;BME280;31601;48.042;12.240;2023-04-27T00:01:05;96230.13;;;7.81;65.85
12757;BME280;31601;48.042;12.240;2023-04-27T00:03:31;96232.94;;;7.71;66.06
12757;BME280;31601;48.042;12.240;2023-04-27T00:05:58;96238.13;;;7.80;65.38
12757;BME280;31601;48.042;12.240;2023-04-27T00:08:24;96229.34;;;7.73;65.84
12757;BME280;31601;48.042;12.240;2023-04-27T00:10:52;96231.31;;;7.70;66.00
12757;BME280;31601;48.042;12.240;2023-04-27T00:13:19;96226.09;;;7.62;66.02
12757;BME280;31601;48.042;12.240;2023-04-27T00:15:45;96228.53;;;7.64;66.04
12757;BME280;31601;48.042;12.240;2023-04-27T00:18:12;96227.06;;;7.61;66.10
12757;BME280;31601;48.042;12.240;2023-04-27T00:20:38;96223.97;;;7.66;66.45
12757;BME280;31601;48.042;12.240;2023-04-27T00:23:05;96229.53;;;7.71;65.98
12757;BME280;31601;48.042;12.240;2023-04-27T00:25:32;96216.94;;;7.75;65.32
12757;BME280;31601;48.042;12.240;2023-04-27T00:27:59;96215.31;;;7.74;65.80
12757;BME280;31601;48.042;12.240;2023-04-27T00:30:26;96216.91;;;7.83;65.48
12757;BME280;31601;48.042;12.240;2023-04-27T00:32:52;96211.69;;;7.83;65.28
12757;BME280;31601;48.042;12.240;2023-04-27T00:35:19;96209.59;;;7.86;65.17
12757;BME280;31601;48.042;12.240;2023-04-27T00:37:46;96214.13;;;7.84;65.24
12757;BME280;31601;48.042;12.240;2023-04-27T00:40:12;96206.47;;;7.91;65.14
12757;BME280;31601;48.042;12.240;2023-04-27T00:42:39;96202.03;;;7.92;65.53
12757;BME280;31601;48.042;12.240;2023-04-27T00:45:08;96205.13;;;7.95;65.20
12757;BME280;31601;48.042;12.240;2023-04-27T00:47:35;96206.44;;;7.99;64.96
12757;BME280;31601;48.042;12.240;2023-04-27T00:50:02;96207.28;;;7.92;65.01
12757;BME280;31601;48.042;12.240;2023-04-27T00:52:32;96204.34;;;7.78;65.46
12757;BME280;31601;48.042;12.240;2023-04-27T00:55:02;96207.47;;;7.82;65.37
12757;BME280;31601;48.042;12.240;2023-04-27T00:57:29;96213.16;;;7.85;65.34
12757;BME280;31601;48.042;12.240;2023-04-27T00:59:56;96210.06;;;7.90;65.46
12757;BME280;31601;48.042;12.240;2023-04-27T01:02:23;96210.84;;;7.91;65.42
12757;BME280;31601;48.042;12.240;2023-04-27T01:04:51;96209.59;;;7.86;65.19
12757;BME280;31601;48.042;12.240;2023-04-27T01:07:17;96212.50;;;7.92;65.04
12757;BME280;31601;48.042;12.240;2023-04-27T01:09:44;96202.22;;;7.90;65.47
12757;BME280;31601;48.042;12.240;2023-04-27T01:12:10;96205.47;;;7.92;64.95
12757;BME280;31601;48.042;12.240;2023-04-27T01:14:37;96205.13;;;7.95;65.03
12757;BME280;31601;48.042;12.240;2023-04-27T01:17:03;96205.78;;;7.97;64.87
12757;BME280;31601;48.042;12.240;2023-04-27T01:19:31;96204.03;;;7.89;65.10
12757;BME280;31601;48.042;12.240;2023-04-27T01:21:58;96202.41;;;7.72;65.41
12757;BME280;31601;48.042;12.240;2023-04-27T01:24:26;96203.72;;;7.76;65.45
12757;BME280;31601;48.042;12.240;2023-04-27T01:26:53;96203.25;;;7.73;65.71
12757;BME280;31601;48.042;12.240;2023-04-27T01:29:19;96204.38;;;7.70;65.81
12757;BME280;31601;48.042;12.240;2023-04-27T01:31:46;96210.91;;;7.66;65.58
12757;BME280;31601;48.042;12.240;2023-04-27T01:34:12;96197.84;;;7.74;65.91
12757;BME280;31601;48.042;12.240;2023-04-27T01:36:39;96201.25;;;7.83;65.54
12757;BME280;31601;48.042;12.240;2023-04-27T01:39:05;96206.31;;;7.84;65.27
12757;BME280;31601;48.042;12.240;2023-04-27T01:41:35;96211.03;;;7.89;65.00
12757;BME280;31601;48.042;12.240;2023-04-27T01:44:02;96204.53;;;7.85;65.50
12757;BME280;31601;48.042;12.240;2023-04-27T01:46:28;96219.25;;;7.69;65.44
12757;BME280;31601;48.042;12.240;2023-04-27T01:48:54;96213.72;;;7.40;65.95
12757;BME280;31601;48.042;12.240;2023-04-27T01:51:21;96206.38;;;7.51;65.74
12757;BME280;31601;48.042;12.240;2023-04-27T01:53:48;96207.84;;;7.46;65.61
12757;BME280;31601;48.042;12.240;2023-04-27T01:56:14;96218.31;;;7.29;66.03
12757;BME280;31601;48.042;12.240;2023-04-27T01:58:42;96211.25;;;7.38;65.82
12757;BME280;31601;48.042;12.240;2023-04-27T02:01:08;96221.53;;;7.40;65.79
12757;BME280;31601;48.042;12.240;2023-04-27T02:03:35;96226.09;;;7.21;66.34
12757;BME280;31601;48.042;12.240;2023-04-27T02:06:02;96223.34;;;7.31;66.57
12757;BME280;31601;48.042;12.240;2023-04-27T02:08:28;96229.84;;;7.35;66.31
12757;BME280;31601;48.042;12.240;2023-04-27T02:10:54;96228.56;;;7.39;65.98
12757;BME280;31601;48.042;12.240;2023-04-27T02:13:21;96226.28;;;7.52;65.67
12757;BME280;31601;48.042;12.240;2023-04-27T02:15:49;96225.47;;;7.60;66.07
12757;BME280;31601;48.042;12.240;2023-04-27T02:18:15;96228.06;;;7.68;66.12
12757;BME280;31601;48.042;12.240;2023-04-27T02:20:42;96225.56;;;7.75;66.13
12757;BME280;31601;48.042;12.240;2023-04-27T02:23:08;96229.00;;;7.84;65.82
12757;BME280;31601;48.042;12.240;2023-04-27T02:25:35;96233.88;;;7.87;65.37
12757;BME280;31601;48.042;12.240;2023-04-27T02:28:03;96235.50;;;7.96;65.36
12757;BME280;31601;48.042;12.240;2023-04-27T02:30:29;96238.91;;;7.97;65.64
12757;BME280;31601;48.042;12.240;2023-04-27T02:32:57;96240.06;;;8.02;64.91
12757;BME280;31601;48.042;12.240;2023-04-27T02:35:24;96238.94;;;7.88;65.26
12757;BME280;31601;48.042;12.240;2023-04-27T02:37:50;96237.81;;;7.83;65.63
12757;BME280;31601;48.042;12.240;2023-04-27T02:40:17;96232.44;;;7.76;65.15
12757;BME280;31601;48.042;12.240;2023-04-27T02:42:43;96235.53;;;7.80;64.98
12757;BME280;31601;48.042;12.240;2023-04-27T02:45:10;96242.53;;;7.87;65.00
12757;BME280;31601;48.042;12.240;2023-04-27T02:47:36;96239.75;;;7.89;65.30
12757;BME280;31601;48.042;12.240;2023-04-27T02:50:05;96245.78;;;7.98;64.93
12757;BME280;31601;48.042;12.240;2023-04-27T02:52:32;96242.03;;;8.00;65.12
12757;BME280;31601;48.042;12.240;2023-04-27T02:54:58;96243.66;;;8.01;64.58
12757;BME280;31601;48.042;12.240;2023-04-27T02:57:26;96247.59;;;7.97;64.76
12757;BME280;31601;48.042;12.240;2023-04-27T02:59:52;96244.47;;;8.02;64.45
12757;BME280;31601;48.042;12.240;2023-04-27T03:02:19;96244.97;;;8.05;64.94
12757;BME280;31601;48.042;12.240;2023-04-27T03:04:45;96250.66;;;8.09;64.76
12757;BME280;31601;48.042;12.240;2023-04-27T03:07:14;96241.03;;;8.10;64.60
12757;BME280;31601;48.042;12.240;2023-04-27T03:09:40;96245.91;;;8.13;64.54
12757;BME280;31601;48.042;12.240;2023-04-27T03:12:06;96252.44;;;8.17;64.16
12757;BME280;31601;48.042;12.240;2023-04-27T03:14:33;96241.00;;;8.18;64.37
12757;BME280;31601;48.042;12.240;2023-04-27T03:16:59;96246.56;;;8.15;64.62
12757;BME280;31601;48.042;12.240;2023-04-27T03:19:27;96247.19;;;8.17;64.57
12757;BME280;31601;48.042;12.240;2023-04-27T03:21:53;96252.94;;;8.20;64.66
12757;BME280;31601;48.042;12.240;2023-04-27T03:24:21;96243.09;;;8.22;64.68
12757;BME280;31601;48.042;12.240;2023-04-27T03:26:49;96247.88;;;8.19;64.96
12757;BME280;31601;48.042;12.240;2023-04-27T03:29:16;96252.44;;;8.17;64.56
12757;BME280;31601;48.042;12.240;2023-04-27T03:31:43;96256.03;;;8.16;64.75
12757;BME280;31601;48.042;12.240;2023-04-27T03:34:09;96255.06;;;8.09;65.30
12757;BME280;31601;48.042;12.240;2023-04-27T03:36:36;96250.50;;;8.02;65.56
12757;BME280;31601;48.042;12.240;2023-04-27T03:39:02;96250.38;;;7.96;65.34
12757;BME280;31601;48.042;12.240;2023-04-27T03:41:30;96253.00;;;7.79;65.61
12757;BME280;31601;48.042;12.240;2023-04-27T03:43:56;96253.16;;;7.78;65.76
12757;BME280;31601;48.042;12.240;2023-04-27T03:46:23;96254.63;;;7.72;65.77
12757;BME280;31601;48.042;12.240;2023-04-27T03:48:49;96258.41;;;7.61;65.71
12757;BME280;31601;48.042;12.240;2023-04-27T03:51:15;96262.16;;;7.50;66.14
12757;BME280;31601;48.042;12.240;2023-04-27T03:53:42;96265.59;;;7.43;66.14
12757;BME280;31601;48.042;12.240;2023-04-27T03:56:08;96273.75;;;7.31;66.45
12757;BME280;31601;48.042;12.240;2023-04-27T03:58:36;96275.72;;;7.29;66.05
12757;BME280;31601;48.042;12.240;2023-04-27T04:01:03;96283.19;;;7.24;66.42
12757;BME280;31601;48.042;12.240;2023-04-27T04:03:29;96284.19;;;7.23;66.59
12757;BME280;31601;48.042;12.240;2023-04-27T04:05:56;96285.47;;;7.19;66.33
12757;BME280;31601;48.042;12.240;2023-04-27T04:08:22;96284.16;;;7.15;66.34
12757;BME280;31601;48.042;12.240;2023-04-27T04:10:48;96284.16;;;7.15;66.54
12757;BME280;31601;48.042;12.240;2023-04-27T04:13:15;96280.91;;;7.13;66.02
12757;BME280;31601;48.042;12.240;2023-04-27T04:15:43;96282.19;;;7.09;66.12
12757;BME280;31601;48.042;12.240;2023-04-27T04:18:09;96282.69;;;7.12;66.64
12757;BME280;31601;48.042;12.240;2023-04-27T04:20:35;96285.78;;;7.16;66.66
12757;BME280;31601;48.042;12.240;2023-04-27T04:23:02;96289.38;;;7.15;67.46
12757;BME280;31601;48.042;12.240;2023-04-27T04:25:28;96291.69;;;7.26;66.99
12757;BME280;31601;48.042;12.240;2023-04-27T04:27:56;96300.50;;;7.33;66.87
12757;BME280;31601;48.042;12.240;2023-04-27T04:30:22;96296.91;;;7.43;67.31
12757;BME280;31601;48.042;12.240;2023-04-27T04:32:50;96311.13;;;7.48;67.34
12757;BME280;31601;48.042;12.240;2023-04-27T04:35:16;96318.13;;;7.64;66.81
12757;BME280;31601;48.042;12.240;2023-04-27T04:37:43;96317.50;;;7.79;66.89
12757;BME280;31601;48.042;12.240;2023-04-27T04:40:11;96318.63;;;7.93;66.89
12757;BME280;31601;48.042;12.240;2023-04-27T04:42:38;96318.13;;;7.81;66.47
12757;BME280;31601;48.042;12.240;2023-04-27T04:45:05;96321.56;;;7.65;66.70
12757;BME280;31601;48.042;12.240;2023-04-27T04:47:32;96322.53;;;7.72;66.60
12757;BME280;31601;48.042;12.240;2023-04-27T04:50:00;96325.66;;;7.51;67.55
12757;BME280;31601;48.042;12.240;2023-04-27T04:52:27;96323.69;;;7.78;66.55
12757;BME280;31601;48.042;12.240;2023-04-27T04:54:53;96332.50;;;7.60;67.27
12757;BME280;31601;48.042;12.240;2023-04-27T04:57:19;96335.25;;;7.42;68.00
12757;BME280;31601;48.042;12.240;2023-04-27T04:59:46;96335.56;;;7.47;67.64
12757;BME280;31601;48.042;12.240;2023-04-27T05:02:12;96340.00;;;7.47;67.23
12757;BME280;31601;48.042;12.240;2023-04-27T05:04:39;96343.13;;;7.83;67.13
12757;BME280;31601;48.042;12.240;2023-04-27T05:07:06;96336.56;;;8.04;65.46
12757;BME280;31601;48.042;12.240;2023-04-27T05:09:35;96335.56;;;8.13;65.33
12757;BME280;31601;48.042;12.240;2023-04-27T05:12:02;96344.03;;;8.32;65.11
12757;BME280;31601;48.042;12.240;2023-04-27T05:14:28;96340.59;;;8.48;64.35
12757;BME280;31601;48.042;12.240;2023-04-27T05:16:54;96342.78;;;8.75;64.29
12757;BME280;31601;48.042;12.240;2023-04-27T05:19:21;96336.03;;;8.89;64.00
12757;BME280;31601;48.042;12.240;2023-04-27T05:21:48;96347.47;;;8.96;64.01
12757;BME280;31601;48.042;12.240;2023-04-27T05:24:16;96344.03;;;9.27;63.85
12757;BME280;31601;48.042;12.240;2023-04-27T05:26:43;96349.88;;;9.38;63.72
12757;BME280;31601;48.042;12.240;2023-04-27T05:29:09;96338.00;;;9.50;63.08
12757;BME280;31601;48.042;12.240;2023-04-27T05:31:36;96341.00;;;9.62;62.72
12757;BME280;31601;48.042;12.240;2023-04-27T05:34:02;96345.34;;;9.78;62.61
12757;BME280;31601;48.042;12.240;2023-04-27T05:36:29;96348.28;;;9.98;61.98
12757;BME280;31601;48.042;12.240;2023-04-27T05:38:56;96346.16;;;10.16;61.77
12757;BME280;31601;48.042;12.240;2023-04-27T05:41:24;96346.06;;;10.25;60.75
12757;BME280;31601;48.042;12.240;2023-04-27T05:43:50;96346.78;;;10.18;60.07
12757;BME280;31601;48.042;12.240;2023-04-27T05:46:17;96349.00;;;10.07;59.75
12757;BME280;31601;48.042;12.240;2023-04-27T05:48:45;96336.00;;;9.75;61.19
12757;BME280;31601;48.042;12.240;2023-04-27T05:51:11;96332.75;;;10.11;60.48
12757;BME280;31601;48.042;12.240;2023-04-27T05:53:38;96338.75;;;10.20;60.12
12757;BME280;31601;48.042;12.240;2023-04-27T05:56:06;96344.38;;;10.32;59.81
12757;BME280;31601;48.042;12.240;2023-04-27T05:58:33;96338.72;;;10.43;59.46
12757;BME280;31601;48.042;12.240;2023-04-27T06:01:00;96349.00;;;10.60;59.32
12757;BME280;31601;48.042;12.240;2023-04-27T06:03:28;96347.31;;;10.82;58.65
12757;BME280;31601;48.042;12.240;2023-04-27T06:05:54;96349.19;;;10.73;58.47
12757;BME280;31601;48.042;12.240;2023-04-27T06:08:21;96357.78;;;10.82;58.60
12757;BME280;31601;48.042;12.240;2023-04-27T06:10:49;96356.53;;;10.78;58.15
12757;BME280;31601;48.042;12.240;2023-04-27T06:13:16;96361.59;;;10.94;57.68
12757;BME280;31601;48.042;12.240;2023-04-27T06:15:44;96364.66;;;10.98;56.31
12757;BME280;31601;48.042;12.240;2023-04-27T06:18:11;96365.09;;;11.01;56.42
12757;BME280;31601;48.042;12.240;2023-04-27T06:20:37;96370.81;;;11.05;57.25
12757;BME280;31601;48.042;12.240;2023-04-27T06:23:04;96371.00;;;10.59;59.00
12757;BME280;31601;48.042;12.240;2023-04-27T06:25:31;96372.81;;;10.73;58.62
12757;BME280;31601;48.042;12.240;2023-04-27T06:27:58;96368.25;;;11.11;58.17
12757;BME280;31601;48.042;12.240;2023-04-27T06:30:25;96358.50;;;11.05;58.52
12757;BME280;31601;48.042;12.240;2023-04-27T06:32:52;96357.03;;;11.03;58.68
12757;BME280;31601;48.042;12.240;2023-04-27T06:35:19;96354.63;;;11.38;57.96
12757;BME280;31601;48.042;12.240;2023-04-27T06:37:45;96360.13;;;11.64;56.78
12757;BME280;31601;48.042;12.240;2023-04-27T06:40:12;96360.41;;;11.70;56.67
12757;BME280;31601;48.042;12.240;2023-04-27T06:42:39;96363.44;;;11.52;57.27
12757;BME280;31601;48.042;12.240;2023-04-27T06:45:06;96358.91;;;11.82;57.02
12757;BME280;31601;48.042;12.240;2023-04-27T06:47:32;96367.84;;;12.09;56.23
12757;BME280;31601;48.042;12.240;2023-04-27T06:50:00;96365.06;;;12.39;55.66
12757;BME280;31601;48.042;12.240;2023-04-27T06:52:27;96374.19;;;12.71;54.65
12757;BME280;31601;48.042;12.240;2023-04-27T06:54:53;96368.97;;;12.85;54.42
12757;BME280;31601;48.042;12.240;2023-04-27T06:57:20;96373.47;;;12.91;53.30
12757;BME280;31601;48.042;12.240;2023-04-27T06:59:46;96377.50;;;13.29;53.28
12757;BME280;31601;48.042;12.240;2023-04-27T07:02:12;96368.25;;;13.46;52.88
12757;BME280;31601;48.042;12.240;2023-04-27T07:04:39;96372.69;;;12.97;53.11
12757;BME280;31601;48.042;12.240;2023-04-27T07:07:07;96376.81;;;12.71;53.82
12757;BME280;31601;48.042;12.240;2023-04-27T07:09:33;96370.50;;;13.07;53.02
12757;BME280;31601;48.042;12.240;2023-04-27T07:11:59;96371.56;;;13.20;52.20
12757;BME280;31601;48.042;12.240;2023-04-27T07:14:27;96370.28;;;13.44;51.67
12757;BME280;31601;48.042;12.240;2023-04-27T07:16:53;96371.72;;;13.60;51.04
12757;BME280;31601;48.042;12.240;2023-04-27T07:19:20;96372.16;;;13.15;51.82
12757;BME280;31601;48.042;12.240;2023-04-27T07:21:47;96380.91;;;12.52;53.18
12757;BME280;31601;48.042;12.240;2023-04-27T07:24:15;96375.38;;;12.69;52.51
12757;BME280;31601;48.042;12.240;2023-04-27T07:26:42;96370.38;;;13.29;52.25
12757;BME280;31601;48.042;12.240;2023-04-27T07:29:08;96371.69;;;13.47;51.52
12757;BME280;31601;48.042;12.240;2023-04-27T07:31:36;96368.66;;;13.50;52.49
12757;BME280;31601;48.042;12.240;2023-04-27T07:34:03;96371.78;;;14.07;50.69
12757;BME280;31601;48.042;12.240;2023-04-27T07:36:29;96361.84;;;14.49;49.54
12757;BME280;31601;48.042;12.240;2023-04-27T07:38:56;96366.91;;;14.57;49.35
12757;BME280;31601;48.042;12.240;2023-04-27T07:41:24;96372.00;;;14.72;48.58
12757;BME280;31601;48.042;12.240;2023-04-27T07:43:50;96359.88;;;15.16;47.87
12757;BME280;31601;48.042;12.240;2023-04-27T07:46:17;96360.09;;;15.53;46.79
12757;BME280;31601;48.042;12.240;2023-04-27T07:48:43;96367.53;;;15.70;45.13
12757;BME280;31601;48.042;12.240;2023-04-27T07:51:10;96370.63;;;15.15;44.35
12757;BME280;31601;48.042;12.240;2023-04-27T07:53:40;96372.66;;;15.65;43.79
12757;BME280;31601;48.042;12.240;2023-04-27T07:56:06;96371.00;;;15.77;42.79
12757;BME280;31601;48.042;12.240;2023-04-27T07:58:35;96371.38;;;14.70;45.42
12757;BME280;31601;48.042;12.240;2023-04-27T08:01:02;96373.22;;;14.63;45.56
12757;BME280;31601;48.042;12.240;2023-04-27T08:03:28;96377.88;;;14.54;46.61
12757;BME280;31601;48.042;12.240;2023-04-27T08:05:55;96376.28;;;14.20;47.20
12757;BME280;31601;48.042;12.240;2023-04-27T08:08:21;96377.47;;;14.44;47.07
12757;BME280;31601;48.042;12.240;2023-04-27T08:10:47;96373.41;;;15.33;46.12
12757;BME280;31601;48.042;12.240;2023-04-27T08:13:14;96376.38;;;15.05;46.90
12757;BME280;31601;48.042;12.240;2023-04-27T08:15:42;96374.59;;;14.92;46.76
12757;BME280;31601;48.042;12.240;2023-04-27T08:18:08;96371.53;;;14.95;46.85
12757;BME280;31601;48.042;12.240;2023-04-27T08:20:34;96368.81;;;15.61;45.72
12757;BME280;31601;48.042;12.240;2023-04-27T08:23:01;96368.34;;;15.77;45.07
12757;BME280;31601;48.042;12.240;2023-04-27T08:25:27;96365.34;;;16.49;43.79
12757;BME280;31601;48.042;12.240;2023-04-27T08:27:54;96370.34;;;16.57;44.09
12757;BME280;31601;48.042;12.240;2023-04-27T08:30:20;96374.34;;;15.91;44.42
12757;BME280;31601;48.042;12.240;2023-04-27T08:32:48;96374.81;;;16.13;43.84
12757;BME280;31601;48.042;12.240;2023-04-27T08:35:14;96374.91;;;16.00;44.00
12757;BME280;31601;48.042;12.240;2023-04-27T08:37:41;96382.81;;;16.75;42.26
12757;BME280;31601;48.042;12.240;2023-04-27T08:40:09;96376.59;;;17.25;41.59
12757;BME280;31601;48.042;12.240;2023-04-27T08:42:35;96377.38;;;17.63;41.02
12757;BME280;31601;48.042;12.240;2023-04-27T08:45:02;96383.06;;;17.48;41.11
12757;BME280;31601;48.042;12.240;2023-04-27T08:47:29;96381.78;;;17.81;40.84
12757;BME280;31601;48.042;12.240;2023-04-27T08:49:57;96376.00;;;18.02;40.55
12757;BME280;31601;48.042;12.240;2023-04-27T08:52:23;96373.25;;;18.21;40.16
12757;BME280;31601;48.042;12.240;2023-04-27T08:54:49;96377.00;;;18.43;39.38
12757;BME280;31601;48.042;12.240;2023-04-27T08:57:16;96369.41;;;17.93;37.01
12757;BME280;31601;48.042;12.240;2023-04-27T08:59:42;96373.25;;;18.21;38.60
12757;BME280;31601;48.042;12.240;2023-04-27T09:02:17;96371.63;;;17.78;39.65
12757;BME280;31601;48.042;12.240;2023-04-27T09:04:43;96373.81;;;17.69;39.01
12757;BME280;31601;48.042;12.240;2023-04-27T09:07:12;96375.06;;;17.66;39.07
12757;BME280;31601;48.042;12.240;2023-04-27T09:09:39;96378.66;;;17.42;39.06
12757;BME280;31601;48.042;12.240;2023-04-27T09:12:16;96371.78;;;17.83;38.95
12757;BME280;31601;48.042;12.240;2023-04-27T09:14:43;96366.81;;;17.56;38.52
12757;BME280;31601;48.042;12.240;2023-04-27T09:17:23;96356.28;;;17.98;39.07
12757;BME280;31601;48.042;12.240;2023-04-27T09:19:50;96367.72;;;17.01;39.78
12757;BME280;31601;48.042;12.240;2023-04-27T09:22:18;96362.72;;;16.68;42.48
12757;BME280;31601;48.042;12.240;2023-04-27T09:24:49;96346.16;;;17.46;40.91
12757;BME280;31601;48.042;12.240;2023-04-27T09:27:18;96359.19;;;17.48;40.31
12757;BME280;31601;48.042;12.240;2023-04-27T09:29:45;96350.72;;;17.69;40.46
12757;BME280;31601;48.042;12.240;2023-04-27T09:32:14;96352.00;;;17.97;40.79
12757;BME280;31601;48.042;12.240;2023-04-27T09:34:41;96348.94;;;18.59;40.16
12757;BME280;31601;48.042;12.240;2023-04-27T09:37:08;96353.75;;;18.98;38.66
12757;BME280;31601;48.042;12.240;2023-04-27T09:39:36;96348.28;;;19.17;38.27
12757;BME280;31601;48.042;12.240;2023-04-27T09:42:03;96354.81;;;19.49;37.60
12757;BME280;31601;48.042;12.240;2023-04-27T09:44:30;96348.66;;;19.08;36.78
12757;BME280;31601;48.042;12.240;2023-04-27T09:46:57;96347.16;;;19.12;37.14
12757;BME280;31601;48.042;12.240;2023-04-27T09:49:26;96346.00;;;19.08;37.07
12757;BME280;31601;48.042;12.240;2023-04-27T09:51:54;96334.56;;;18.84;38.76
12757;BME280;31601;48.042;12.240;2023-04-27T09:54:25;96347.88;;;19.08;38.15
12757;BME280;31601;48.042;12.240;2023-04-27T09:57:04;96341.19;;;17.50;38.56
12757;BME280;31601;48.042;12.240;2023-04-27T09:59:45;96332.03;;;17.34;39.74
12757;BME280;31601;48.042;12.240;2023-04-27T10:02:15;96335.97;;;16.94;41.36
12757;BME280;31601;48.042;12.240;2023-04-27T10:05:01;96331.06;;;16.73;40.13
12757;BME280;31601;48.042;12.240;2023-04-27T10:07:33;96315.78;;;17.72;40.67
12757;BME280;31601;48.042;12.240;2023-04-27T10:10:02;96312.88;;;18.52;38.21
12757;BME280;31601;48.042;12.240;2023-04-27T10:12:33;96307.25;;;18.60;37.28
12757;BME280;31601;48.042;12.240;2023-04-27T10:15:11;96315.59;;;19.04;37.34
12757;BME280;31601;48.042;12.240;2023-04-27T10:17:46;96314.81;;;18.92;35.37
12757;BME280;31601;48.042;12.240;2023-04-27T10:20:13;96309.34;;;17.38;36.47
12757;BME280;31601;48.042;12.240;2023-04-27T10:22:41;96308.50;;;18.10;36.31
12757;BME280;31601;48.042;12.240;2023-04-27T10:25:16;96304.91;;;18.52;36.28
12757;BME280;31601;48.042;12.240;2023-04-27T10:27:48;96311.94;;;18.70;36.54
12757;BME280;31601;48.042;12.240;2023-04-27T10:30:17;96315.44;;;19.23;35.59
12757;BME280;31601;48.042;12.240;2023-04-27T10:32:52;96304.31;;;19.83;34.39
12757;BME280;31601;48.042;12.240;2023-04-27T10:35:20;96301.59;;;19.49;34.36
12757;BME280;31601;48.042;12.240;2023-04-27T10:37:46;96291.34;;;20.04;35.11
12757;BME280;31601;48.042;12.240;2023-04-27T10:40:14;96296.72;;;20.09;34.60
12757;BME280;31601;48.042;12.240;2023-04-27T10:42:42;96297.31;;;20.11;33.65
12757;BME280;31601;48.042;12.240;2023-04-27T10:45:10;96293.25;;;20.43;33.36
12757;BME280;31601;48.042;12.240;2023-04-27T10:47:39;96297.00;;;19.62;34.83
12757;BME280;31601;48.042;12.240;2023-04-27T10:50:07;96298.88;;;18.80;33.99
12757;BME280;31601;48.042;12.240;2023-04-27T10:52:35;96287.81;;;19.70;33.29
12757;BME280;31601;48.042;12.240;2023-04-27T10:55:12;96286.47;;;19.38;34.24
12757;BME280;31601;48.042;12.240;2023-04-27T10:57:47;96293.56;;;19.32;35.40
12757;BME280;31601;48.042;12.240;2023-04-27T11:00:21;96289.59;;;19.35;36.35
12757;BME280;31601;48.042;12.240;2023-04-27T11:02:48;96299.09;;;19.02;34.77
12757;BME280;31601;48.042;12.240;2023-04-27T11:05:16;96295.00;;;17.27;36.21
12757;BME280;31601;48.042;12.240;2023-04-27T11:07:43;96294.63;;;17.54;36.69
12757;BME280;31601;48.042;12.240;2023-04-27T11:10:14;96295.91;;;17.21;37.16
12757;BME280;31601;48.042;12.240;2023-04-27T11:12:40;96295.63;;;17.41;38.42
12757;BME280;31601;48.042;12.240;2023-04-27T11:15:08;96295.41;;;17.43;37.38
12757;BME280;31601;48.042;12.240;2023-04-27T11:17:36;96302.47;;;17.00;37.29
12757;BME280;31601;48.042;12.240;2023-04-27T11:20:03;96297.72;;;16.46;37.75
12757;BME280;31601;48.042;12.240;2023-04-27T11:22:31;96303.78;;;16.54;37.39
12757;BME280;31601;48.042;12.240;2023-04-27T11:24:58;96295.06;;;17.21;37.37
12757;BME280;31601;48.042;12.240;2023-04-27T11:27:35;96283.06;;;17.36;36.20
12757;BME280;31601;48.042;12.240;2023-04-27T11:30:02;96286.19;;;17.99;36.87
12757;BME280;31601;48.042;12.240;2023-04-27T11:32:29;96295.44;;;18.08;36.63
12757;BME280;31601;48.042;12.240;2023-04-27T11:34:57;96288.41;;;18.02;37.72
12757;BME280;31601;48.042;12.240;2023-04-27T11:37:25;96291.00;;;17.79;37.32
12757;BME280;31601;48.042;12.240;2023-04-27T11:39:53;96291.56;;;17.81;37.44
12757;BME280;31601;48.042;12.240;2023-04-27T11:42:23;96299.06;;;16.74;38.54
12757;BME280;31601;48.042;12.240;2023-04-27T11:44:53;96290.88;;;17.13;38.34
12757;BME280;31601;48.042;12.240;2023-04-27T11:47:20;96297.19;;;17.00;37.25
12757;BME280;31601;48.042;12.240;2023-04-27T11:49:47;96289.78;;;17.51;38.83
12757;BME280;31601;48.042;12.240;2023-04-27T11:52:15;96291.69;;;17.74;38.19
12757;BME280;31601;48.042;12.240;2023-04-27T11:54:48;96299.53;;;17.69;36.76
12757;BME280;31601;48.042;12.240;2023-04-27T11:57:15;96296.84;;;18.11;36.72
12757;BME280;31601;48.042;12.240;2023-04-27T11:59:41;96297.81;;;17.86;35.67
12757;BME280;31601;48.042;12.240;2023-04-27T12:02:08;96300.09;;;17.71;35.87
12757;BME280;31601;48.042;12.240;2023-04-27T12:04:34;96302.63;;;17.78;39.43
12757;BME280;31601;48.042;12.240;2023-04-27T12:07:01;96303.59;;;17.83;37.05
12757;BME280;31601;48.042;12.240;2023-04-27T12:09:29;96300.38;;;17.51;36.83
12757;BME280;31601;48.042;12.240;2023-04-27T12:11:55;96299.09;;;17.42;37.35
12757;BME280;31601;48.042;12.240;2023-04-27T12:14:22;96291.31;;;18.24;38.19
12757;BME280;31601;48.042;12.240;2023-04-27T12:16:49;96298.69;;;18.34;38.52
12757;BME280;31601;48.042;12.240;2023-04-27T12:19:15;96291.53;;;18.11;40.57
12757;BME280;31601;48.042;12.240;2023-04-27T12:21:42;96296.63;;;18.13;38.85
12757;BME280;31601;48.042;12.240;2023-04-27T12:24:09;96294.63;;;17.96;39.32
12757;BME280;31601;48.042;12.240;2023-04-27T12:26:37;96293.81;;;18.78;39.82
12757;BME280;31601;48.042;12.240;2023-04-27T12:29:03;96293.22;;;19.29;38.23
12757;BME280;31601;48.042;12.240;2023-04-27T12:31:30;96295.31;;;19.56;38.26
12757;BME280;31601;48.042;12.240;2023-04-27T12:33:56;96292.53;;;19.79;36.19
12757;BME280;31601;48.042;12.240;2023-04-27T12:36:23;96298.06;;;18.79;36.78
12757;BME280;31601;48.042;12.240;2023-04-27T12:38:51;96303.09;;;19.45;38.19
12757;BME280;31601;48.042;12.240;2023-04-27T12:41:17;96297.22;;;18.38;38.50
12757;BME280;31601;48.042;12.240;2023-04-27T12:43:45;96298.16;;;18.96;36.96
12757;BME280;31601;48.042;12.240;2023-04-27T12:46:12;96310.00;;;18.53;39.80
12757;BME280;31601;48.042;12.240;2023-04-27T12:48:39;96308.03;;;19.25;38.92
12757;BME280;31601;48.042;12.240;2023-04-27T12:51:05;96300.03;;;18.84;37.15
12757;BME280;31601;48.042;12.240;2023-04-27T12:53:32;96299.94;;;19.20;36.35
12757;BME280;31601;48.042;12.240;2023-04-27T12:55:58;96289.91;;;18.69;36.57